Time;durP1;ratioP1;P1;durP2;ratioP2;P2;SDS_P1;SDS_P2;PMS_P1;PMS_P2;Temp;Humidity;BMP_temperature;BMP_pressure;BME280_temperature;BME280_humidity;BME280_pressure;Samples;Min_cycle;Max_cycle;Signal;HPM_P1;HPM_P2
2022/09/25 00:00:42;;;;;;;8.38;5.97;;;;;;;21.35;38.96;101098.05;1706970;84;21346;-76
2022/09/25 00:03:10;;;;;;;8.98;6.25;;;;;;;21.34;38.96;101099.21;1706724;83;21112;-76
2022/09/25 00:05:37;;;;;;;8.43;6.12;;;;;;;21.35;38.94;101098.05;1706713;83;21053;-75
2022/09/25 00:08:04;;;;;;;9.40;6.08;;;;;;;21.35;38.95;101093.91;1706553;83;22245;-75
2022/09/25 00:10:31;;;;;;;8.90;6.08;;;;;;;21.34;38.93;101093.67;1706575;83;21254;-75
2022/09/25 00:12:58;;;;;;;9.40;6.20;;;;;;;21.34;38.93;101093.67;1706939;83;21530;-75
2022/09/25 00:15:24;;;;;;;8.15;5.53;;;;;;;21.34;38.92;101107.52;1688345;83;23278;-75
2022/09/25 00:17:50;;;;;;;8.35;6.25;;;;;;;21.33;38.96;101099.77;1730697;82;21061;-75
2022/09/25 00:20:18;;;;;;;6.50;5.72;;;;;;;21.33;38.95;101092.86;1714039;83;21031;-76
2022/09/25 00:22:45;;;;;;;8.13;5.58;;;;;;;21.33;38.93;101093.42;1716938;83;21522;-75
2022/09/25 00:25:13;;;;;;;9.33;6.10;;;;;;;21.34;38.92;101087.55;1717394;83;21067;-75
2022/09/25 00:27:40;;;;;;;8.03;6.08;;;;;;;21.33;38.95;101075.42;1718986;81;21784;-75
2022/09/25 00:30:08;;;;;;;7.53;5.25;;;;;;;21.33;38.93;101080.41;1717033;83;21100;-75
2022/09/25 00:32:34;;;;;;;8.53;5.87;;;;;;;21.32;38.96;101069.08;1717410;81;21067;-75
2022/09/25 00:35:01;;;;;;;9.75;6.78;;;;;;;21.33;38.93;101076.81;1695014;83;21083;-75
2022/09/25 00:37:27;;;;;;;11.65;6.33;;;;;;;21.33;38.95;101074.05;1716827;81;21095;-76
2022/09/25 00:39:55;;;;;;;8.85;6.12;;;;;;;21.30;38.96;101069.94;1718649;83;21530;-75
2022/09/25 00:42:28;;;;;;;8.20;5.97;;;;;;;21.32;38.96;101069.63;1717366;81;21048;-75
2022/09/25 00:45:07;;;;;;;9.20;6.45;;;;;;;21.32;38.97;101070.45;1716860;83;21036;-75
2022/09/25 00:48:02;;;;;;;8.80;6.17;;;;;;;21.32;38.97;101059.39;1700752;83;22163;-76
2022/09/25 00:50:51;;;;;;;9.08;5.92;;;;;;;21.31;38.96;101056.36;1703478;83;21056;-75
2022/09/25 00:53:24;;;;;;;11.12;6.08;;;;;;;21.31;38.96;101053.59;1703862;84;21970;-75
2022/09/25 00:55:51;;;;;;;9.80;6.60;;;;;;;21.31;38.94;101060.52;1703913;83;21025;-75
2022/09/25 00:58:20;;;;;;;8.95;6.62;;;;;;;21.30;38.95;101056.70;1684314;84;21048;-76
2022/09/25 01:00:46;;;;;;;8.93;5.97;;;;;;;21.31;38.97;101058.30;1704356;84;21064;-76
2022/09/25 01:03:13;;;;;;;9.55;6.62;;;;;;;21.29;38.99;101050.34;1704135;83;21032;-75
2022/09/25 01:05:41;;;;;;;9.48;6.60;;;;;;;21.29;38.99;101052.28;1703814;83;21573;-76
2022/09/25 01:08:09;;;;;;;8.85;6.35;;;;;;;21.30;38.99;101052.55;1704250;84;21104;-76
2022/09/25 01:10:35;;;;;;;10.90;7.67;;;;;;;21.29;39.00;101048.95;1703866;83;21480;-76
2022/09/25 01:13:08;;;;;;;9.88;6.05;;;;;;;21.30;38.99;101051.95;1683845;84;21147;-76
2022/09/25 01:15:48;;;;;;;9.35;6.70;;;;;;;21.30;39.00;101052.55;1703555;83;21111;-75
2022/09/25 01:18:21;;;;;;;;;;;;;;;21.30;38.99;101055.31;1695084;84;21202;-75
2022/09/25 01:21:16;;;;;;;9.10;6.40;;;;;;;21.29;39.00;101052.28;1703449;83;20212;-76
2022/09/25 01:24:06;;;;;;;10.20;6.85;;;;;;;21.28;39.01;101050.64;1703231;83;21112;-75
2022/09/25 01:27:11;;;;;;;9.68;6.92;;;;;;;21.26;39.01;101042.65;1683046;84;21092;-75
2022/09/25 01:29:56;;;;;;;9.20;6.75;;;;;;;21.26;39.00;101041.86;1703767;83;21040;-76
2022/09/25 01:32:42;;;;;;;9.18;6.55;;;;;;;21.25;39.02;101049.91;1703634;84;21128;-76
2022/09/25 01:35:23;;;;;;;8.28;6.53;;;;;;;21.24;39.01;101046.31;1696417;83;21049;-75
2022/09/25 01:38:20;;;;;;;8.23;6.78;;;;;;;21.25;39.02;101042.42;1703851;83;21522;-75
2022/09/25 01:41:03;;;;;;;10.00;7.03;;;;;;;21.25;39.06;101040.22;1650383;86;21075;-75
2022/09/25 01:43:40;;;;;;;9.68;7.45;;;;;;;21.24;39.07;101048.27;1650180;85;21194;-75
2022/09/25 01:46:19;;;;;;;9.30;6.78;;;;;;;21.23;39.07;101048.83;1685058;83;21504;-77
2022/09/25 01:48:49;;;;;;;7.75;6.20;;;;;;;21.23;39.08;101044.67;1715115;82;21013;-74
2022/09/25 01:51:22;;;;;;;9.73;7.23;;;;;;;21.23;39.08;101039.14;1715331;82;21067;-74
2022/09/25 01:53:53;;;;;;;11.73;6.97;;;;;;;21.23;39.09;101036.94;1715158;83;21043;-75
2022/09/25 01:56:31;;;;;;;9.95;7.05;;;;;;;21.23;39.11;101039.14;1715279;82;21606;-75
2022/09/25 01:59:01;;;;;;;9.75;6.87;;;;;;;21.24;39.11;101039.96;1714629;82;21146;-75
2022/09/25 02:01:34;;;;;;;8.70;6.90;;;;;;;21.24;39.09;101030.27;1714658;82;21652;-74
2022/09/25 02:04:18;;;;;;;8.90;6.80;;;;;;;21.24;39.10;101043.55;1715273;82;21547;-74
2022/09/25 02:06:46;;;;;;;9.63;7.10;;;;;;;21.24;39.10;101042.73;1714955;82;21028;-74
2022/09/25 02:09:22;;;;;;;9.15;7.12;;;;;;;21.24;39.10;101040.78;1709257;82;21168;-74
2022/09/25 02:11:51;;;;;;;10.75;8.30;;;;;;;21.24;39.09;101041.34;1683579;84;21364;-75
2022/09/25 02:14:22;;;;;;;9.78;7.53;;;;;;;21.24;39.08;101044.94;1694284;83;21091;-75
2022/09/25 02:16:52;;;;;;;9.60;7.25;;;;;;;21.24;39.08;101042.73;1694033;83;21123;-74
2022/09/25 02:22:14;;;;;;;11.22;7.72;;;;;;;21.24;39.09;101049.08;1693918;84;21473;-75
2022/09/25 02:25:06;;;;;;;10.05;7.65;;;;;;;21.25;39.07;101041.60;1713474;83;21204;-74
2022/09/25 02:27:33;;;;;;;9.73;7.67;;;;;;;21.24;39.09;101042.73;1712603;82;21055;-74
2022/09/25 02:29:59;;;;;;;10.38;7.58;;;;;;;21.25;39.07;101049.91;1693750;84;21094;-75
2022/09/25 02:32:28;;;;;;;11.65;7.35;;;;;;;21.25;39.09;101048.52;1687595;83;21044;-75
2022/09/25 02:34:56;;;;;;;10.32;7.50;;;;;;;21.25;39.09;101055.44;1664735;83;21501;-76
2022/09/25 02:37:28;;;;;;;9.45;7.55;;;;;;;21.23;39.07;101048.83;1693576;83;21199;-74
2022/09/25 02:39:57;;;;;;;9.18;7.30;;;;;;;21.24;39.09;101053.23;1721285;83;21015;-75
2022/09/25 02:42:53;;;;;;;10.13;8.10;;;;;;;21.24;39.10;101054.62;1724928;82;21602;-75
2022/09/25 02:45:44;;;;;;;8.65;7.35;;;;;;;21.24;39.10;101049.08;1724392;81;21046;-74
2022/09/25 02:48:19;;;;;;;11.90;7.43;;;;;;;21.24;39.09;101054.62;1695488;83;21122;-74
2022/09/25 02:51:12;;;;;;;10.50;7.15;;;;;;;21.23;39.08;101048.00;1690917;84;21203;-74
2022/09/25 02:54:02;;;;;;;12.03;7.62;;;;;;;21.23;39.09;101050.20;1674922;85;21081;-76
2022/09/25 02:56:32;;;;;;;9.03;7.08;;;;;;;21.23;39.09;101053.53;1677804;84;21076;-75
2022/09/25 02:59:04;;;;;;;10.58;7.50;;;;;;;21.22;39.08;101044.42;1678389;84;21096;-75
2022/09/25 03:01:31;;;;;;;10.53;7.42;;;;;;;21.22;39.11;101044.98;1674888;85;21519;-74
2022/09/25 03:03:57;;;;;;;9.65;7.60;;;;;;;21.22;39.11;101051.34;1677749;84;21312;-74
2022/09/25 03:06:24;;;;;;;8.80;7.10;;;;;;;21.22;39.12;101050.52;1653636;85;21116;-74
2022/09/25 03:08:56;;;;;;;10.25;7.87;;;;;;;21.22;39.12;101045.80;1677365;85;21295;-74
2022/09/25 03:11:25;;;;;;;9.85;7.85;;;;;;;21.21;39.13;101051.67;1677553;84;21688;-74
2022/09/25 03:14:00;;;;;;;10.60;7.45;;;;;;;21.22;39.13;101057.43;1677178;84;21107;-75
2022/09/25 03:16:44;;;;;;;9.53;7.17;;;;;;;21.21;39.13;101055.26;1677698;84;21601;-74
2022/09/25 03:19:11;;;;;;;10.08;7.72;;;;;;;21.22;39.14;101059.64;1674454;84;21052;-74
2022/09/25 03:21:37;;;;;;;11.50;7.47;;;;;;;21.22;39.12;101058.81;1677970;84;21080;-74
2022/09/25 03:24:04;;;;;;;11.08;8.00;;;;;;;21.23;39.12;101061.84;1645073;86;21498;-75
2022/09/25 03:26:30;;;;;;;10.75;8.30;;;;;;;21.21;39.13;101060.80;1646761;86;21106;-75
2022/09/25 03:28:59;;;;;;;9.45;7.70;;;;;;;21.22;39.13;101061.58;1645163;85;21305;-74
2022/09/25 03:31:24;;;;;;;9.68;7.75;;;;;;;21.22;39.16;101059.64;1644958;85;21176;-74
2022/09/25 03:33:51;;;;;;;10.08;8.38;;;;;;;21.22;39.13;101058.81;1626026;86;21098;-74
2022/09/25 03:36:19;;;;;;;11.97;8.35;;;;;;;21.21;39.15;101066.33;1628648;86;21130;-74
2022/09/25 03:38:48;;;;;;;11.10;7.87;;;;;;;21.22;39.15;101066.55;1645607;86;21086;-74
2022/09/25 03:41:19;;;;;;;11.73;8.10;;;;;;;21.22;39.13;101061.58;1645106;86;21537;-74
2022/09/25 03:43:47;;;;;;;9.95;7.47;;;;;;;21.21;39.16;101064.94;1645411;86;21118;-75
2022/09/25 03:46:13;;;;;;;11.40;8.23;;;;;;;21.22;39.17;101061.58;1624958;85;21439;-74
2022/09/25 03:48:40;;;;;;;9.63;7.47;;;;;;;21.21;39.16;101067.70;1645191;86;21079;-74
2022/09/25 03:51:07;;;;;;;9.85;7.95;;;;;;;21.22;39.17;101065.73;1645431;86;21059;-74
2022/09/25 03:53:33;;;;;;;9.78;8.05;;;;;;;21.22;39.16;101060.20;1645327;86;21659;-75
2022/09/25 03:56:00;;;;;;;10.78;8.40;;;;;;;21.22;39.13;101067.11;1624599;87;21106;-74
2022/09/25 03:58:27;;;;;;;10.63;7.85;;;;;;;21.21;39.15;101067.70;1642457;85;21535;-74
2022/09/25 04:00:56;;;;;;;10.50;8.40;;;;;;;21.20;39.15;101070.22;1632460;86;21555;-74
2022/09/25 04:03:28;;;;;;;10.95;7.62;;;;;;;21.21;39.13;101066.89;1663440;85;21123;-74
2022/09/25 04:05:56;;;;;;;10.70;8.03;;;;;;;21.21;39.13;101071.04;1656995;86;21483;-74
2022/09/25 04:08:28;;;;;;;10.25;8.13;;;;;;;21.21;39.16;101076.58;1655935;85;21120;-75
2022/09/25 04:10:58;;;;;;;10.78;8.55;;;;;;;21.21;39.15;101075.19;1656001;85;21124;-75
2022/09/25 04:13:32;;;;;;;9.85;7.67;;;;;;;21.20;39.14;101081.84;1656507;85;21586;-75
2022/09/25 04:16:00;;;;;;;12.28;8.28;;;;;;;21.20;39.15;101074.37;1655597;84;21072;-75
2022/09/25 04:18:30;;;;;;;12.40;8.40;;;;;;;21.20;39.16;101077.14;1656337;85;21127;-74
2022/09/25 04:20:55;;;;;;;11.03;8.63;;;;;;;21.20;39.13;101077.14;1655604;85;21087;-74
2022/09/25 04:23:21;;;;;;;11.22;8.18;;;;;;;21.20;39.15;101068.84;1655949;85;21575;-75
2022/09/25 04:25:48;;;;;;;9.55;7.75;;;;;;;21.20;39.15;101084.05;1612985;86;21068;-75
2022/09/25 04:28:15;;;;;;;11.78;8.45;;;;;;;21.20;39.14;101086.00;1668071;84;21555;-76
2022/09/25 04:30:41;;;;;;;11.12;8.40;;;;;;;21.21;39.15;101091.80;1677913;84;22039;-75
2022/09/25 04:35:53;;;;;;;11.12;8.25;;;;;;;21.21;39.13;101087.64;1677916;85;21068;-74
2022/09/25 04:38:20;;;;;;;10.85;7.90;;;;;;;21.20;39.12;101083.23;1678111;85;21079;-74
2022/09/25 04:40:46;;;;;;;9.88;8.25;;;;;;;21.19;39.13;101076.05;1678399;84;21071;-75
2022/09/25 04:43:12;;;;;;;12.10;8.45;;;;;;;21.18;39.16;101072.47;1674637;84;21231;-74
2022/09/25 04:45:38;;;;;;;11.20;8.03;;;;;;;21.17;39.14;101076.39;1678031;84;21079;-74
2022/09/25 04:48:05;;;;;;;11.55;7.72;;;;;;;21.19;39.13;101074.67;1694548;82;21091;-74
2022/09/25 04:50:31;;;;;;;10.30;9.20;;;;;;;21.17;39.15;101075.01;1726902;83;21698;-74
2022/09/25 04:52:58;;;;;;;10.28;8.75;;;;;;;21.18;39.13;101084.09;1706315;82;21051;-75
2022/09/25 04:55:24;;;;;;;11.30;8.43;;;;;;;21.19;39.14;101087.13;1726950;83;21096;-74
2022/09/25 04:57:56;;;;;;;10.40;8.48;;;;;;;21.18;39.13;101086.30;1726708;82;21043;-74
2022/09/25 05:00:23;;;;;;;9.58;8.13;;;;;;;21.18;39.18;101075.23;1726016;82;21063;-74
2022/09/25 05:02:50;;;;;;;11.95;8.95;;;;;;;21.18;39.17;101072.47;1726469;83;21099;-75
2022/09/25 05:05:17;;;;;;;11.88;7.92;;;;;;;21.17;39.18;101071.42;1717679;83;21127;-75
2022/09/25 05:07:56;;;;;;;11.93;8.00;;;;;;;21.18;39.17;101078.56;1713380;82;21621;-75
2022/09/25 05:10:26;;;;;;;9.38;7.80;;;;;;;21.17;39.17;101076.39;1713826;82;21043;-77
2022/09/25 05:13:01;;;;;;;9.90;7.70;;;;;;;21.18;39.17;101074.41;1712909;83;20949;-75
2022/09/25 05:15:29;;;;;;;12.03;8.40;;;;;;;21.18;39.17;101064.73;1710872;83;21139;-75
2022/09/25 05:18:01;;;;;;;10.35;7.97;;;;;;;21.17;39.18;101060.35;1710762;83;21065;-74
2022/09/25 05:20:27;;;;;;;10.30;8.15;;;;;;;21.16;39.18;101062.86;1711083;83;21888;-75
2022/09/25 05:22:56;;;;;;;10.82;8.03;;;;;;;21.18;39.19;101067.50;1709847;83;21075;-75
2022/09/25 05:25:24;;;;;;;11.83;8.53;;;;;;;21.17;39.18;101055.64;1710475;83;21437;-74
2022/09/25 05:27:54;;;;;;;11.60;8.53;;;;;;;21.17;39.22;101048.72;1711164;83;21562;-74
2022/09/25 05:30:21;;;;;;;9.77;7.80;;;;;;;21.17;39.22;101045.95;1711132;83;21696;-75
2022/09/25 05:32:51;;;;;;;11.20;8.38;;;;;;;21.17;39.21;101044.57;1690907;83;21124;-74
2022/09/25 05:35:22;;;;;;;10.45;7.95;;;;;;;21.17;39.20;101052.05;1711000;83;21135;-74
2022/09/25 05:37:55;;;;;;;10.68;8.15;;;;;;;21.16;39.20;101060.91;1710483;83;21060;-75
2022/09/25 05:40:22;;;;;;;12.37;9.08;;;;;;;21.17;39.21;101064.50;1710267;83;21139;-74
2022/09/25 05:42:49;;;;;;;10.85;7.58;;;;;;;21.16;39.21;101063.68;1736928;81;21361;-74
2022/09/25 05:45:16;;;;;;;11.50;8.40;;;;;;;21.17;39.21;101068.66;1693606;83;21862;-75
2022/09/25 05:47:43;;;;;;;10.78;8.20;;;;;;;21.17;39.20;101070.03;1694104;83;21083;-75
2022/09/25 05:50:12;;;;;;;10.15;7.90;;;;;;;21.16;39.22;101073.92;1686202;84;21099;-74
2022/09/25 05:52:39;;;;;;;10.30;8.08;;;;;;;21.16;39.20;101078.90;1687611;85;20929;-75
2022/09/25 05:55:06;;;;;;;9.80;7.97;;;;;;;21.16;39.22;101071.98;1687921;84;20937;-75
2022/09/25 05:57:34;;;;;;;10.55;8.23;;;;;;;21.17;39.20;101068.66;1686828;84;21670;-74
2022/09/25 06:00:08;;;;;;;11.45;8.00;;;;;;;21.17;39.18;101061.17;1686443;84;21053;-75
2022/09/25 06:02:39;;;;;;;11.60;8.10;;;;;;;21.17;39.14;101059.79;1686552;85;21147;-75
2022/09/25 06:05:07;;;;;;;10.53;8.35;;;;;;;21.15;39.11;101054.30;1686266;84;21064;-75
2022/09/25 06:07:35;;;;;;;10.70;8.10;;;;;;;21.18;39.07;101053.09;1686849;84;22219;-75
2022/09/25 06:10:01;;;;;;;12.58;8.45;;;;;;;21.19;39.06;101060.84;1686939;85;21301;-75
2022/09/25 06:12:29;;;;;;;10.32;7.95;;;;;;;21.17;39.03;101061.17;1686668;85;21045;-75
2022/09/25 06:14:55;;;;;;;11.83;8.58;;;;;;;21.18;39.00;101069.70;1686983;84;21123;-76
2022/09/25 06:17:22;;;;;;;11.08;7.80;;;;;;;21.18;38.97;101072.47;1668582;84;21536;-74
2022/09/25 06:19:48;;;;;;;11.57;7.72;;;;;;;21.19;38.94;101064.98;1675066;84;21620;-74
2022/09/25 06:22:14;;;;;;;9.15;8.15;;;;;;;21.20;38.93;101063.86;1696200;83;21165;-74
2022/09/25 06:24:41;;;;;;;11.10;8.23;;;;;;;21.19;38.96;101071.34;1695873;82;21048;-75
2022/09/25 06:27:07;;;;;;;9.53;7.62;;;;;;;21.19;38.94;101063.60;1684080;84;21055;-74
2022/09/25 06:29:34;;;;;;;10.20;7.67;;;;;;;21.19;38.90;101064.42;1726684;81;21095;-75
2022/09/25 06:32:01;;;;;;;11.57;7.95;;;;;;;21.18;38.91;101073.03;1684268;84;21089;-74
2022/09/25 06:34:29;;;;;;;8.85;7.90;;;;;;;21.19;38.93;101081.03;1695428;83;49962;-74
2022/09/25 06:36:55;;;;;;;11.55;8.20;;;;;;;21.20;38.95;101075.75;1662839;84;21033;-75
2022/09/25 06:39:21;;;;;;;10.03;7.70;;;;;;;21.19;38.93;101078.27;1726926;81;21091;-74
2022/09/25 06:41:48;;;;;;;10.82;7.67;;;;;;;21.20;38.92;101075.75;1684676;84;21128;-75
2022/09/25 06:44:15;;;;;;;9.90;7.50;;;;;;;21.19;38.91;101079.64;1696749;83;21569;-74
2022/09/25 06:46:43;;;;;;;12.95;7.40;;;;;;;21.19;38.92;101081.03;1726898;81;21137;-74
2022/09/25 06:49:12;;;;;;;9.10;7.50;;;;;;;21.20;38.90;101077.70;1744217;80;21023;-75
2022/09/25 06:51:39;;;;;;;11.60;7.62;;;;;;;21.20;38.89;101085.44;1682538;83;21052;-74
2022/09/25 06:54:05;;;;;;;10.58;7.92;;;;;;;21.19;38.90;101079.64;1715741;81;21054;-75
2022/09/25 06:56:38;;;;;;;10.25;8.00;;;;;;;21.20;38.89;101080.47;1651773;85;21077;-74
2022/09/25 06:59:04;;;;;;;11.48;8.40;;;;;;;21.20;38.89;101082.67;1739488;82;21804;-76
2022/09/25 07:01:30;;;;;;;11.70;8.05;;;;;;;21.20;38.89;101092.92;1671592;82;21040;-74
2022/09/25 07:03:56;;;;;;;9.68;7.37;;;;;;;21.20;38.91;101092.92;1694330;83;21642;-74
2022/09/25 07:06:26;;;;;;;11.15;7.55;;;;;;;21.20;38.93;101094.30;1717734;82;21094;-74
2022/09/25 07:08:52;;;;;;;8.70;7.53;;;;;;;21.20;38.95;101093.73;1719327;83;21122;-74
2022/09/25 07:11:21;;;;;;;8.80;6.85;;;;;;;21.20;38.97;101097.06;1739448;82;21546;-74
2022/09/25 07:13:53;;;;;;;11.10;6.97;;;;;;;21.21;38.96;101100.09;1719215;83;21052;-75
2022/09/25 07:16:17;;;;;;;10.53;7.40;;;;;;;21.20;38.96;101095.13;1697030;83;21221;-75
2022/09/25 07:18:43;;;;;;;11.40;8.30;;;;;;;21.21;38.97;101096.77;1718594;82;21083;-74
2022/09/25 07:21:12;;;;;;;9.03;7.42;;;;;;;21.21;38.95;101087.64;1719016;83;21062;-74
2022/09/25 07:23:40;;;;;;;10.60;7.22;;;;;;;21.22;38.95;101086.48;1719453;83;21239;-74
2022/09/25 07:26:27;;;;;;;8.73;7.03;;;;;;;21.22;38.95;101092.02;1718982;83;21056;-74
2022/09/25 07:28:45;;;;;;;9.03;7.28;;;;;;;21.22;38.92;101093.41;1717267;82;21107;-74
2022/09/25 07:31:20;;;;;;;11.68;6.97;;;;;;;21.22;38.92;101090.63;1715287;83;21048;-75
2022/09/25 07:33:46;;;;;;;10.55;7.20;;;;;;;21.22;38.94;101089.25;1708563;83;21072;-74
2022/09/25 07:36:13;;;;;;;11.03;7.90;;;;;;;21.23;38.95;101090.89;1708650;83;21108;-74
2022/09/25 07:38:40;;;;;;;8.75;6.90;;;;;;;21.23;38.95;101085.36;1693922;83;21043;-74
2022/09/25 07:41:09;;;;;;;10.08;7.10;;;;;;;21.23;38.91;101081.20;1692357;83;21064;-74
2022/09/25 07:43:37;;;;;;;9.50;7.12;;;;;;;21.23;38.89;101076.50;1704768;83;21637;-74
2022/09/25 07:46:04;;;;;;;10.70;6.83;;;;;;;21.24;38.88;101078.70;1704414;83;21124;-74
2022/09/25 07:48:31;;;;;;;9.35;7.30;;;;;;;21.24;38.88;101078.70;1706764;82;21068;-74
2022/09/25 07:51:01;;;;;;;9.60;7.33;;;;;;;21.24;38.85;101069.02;1694639;83;21071;-75
2022/09/25 07:53:28;;;;;;;8.58;6.85;;;;;;;21.25;38.86;101068.71;1694231;83;23084;-76
2022/09/25 07:55:59;;;;;;;9.45;6.75;;;;;;;21.24;38.84;101067.63;1703351;83;21071;-74
2022/09/25 07:58:26;;;;;;;9.88;7.12;;;;;;;21.25;38.80;101072.86;1721531;82;21557;-74
2022/09/25 08:00:53;;;;;;;10.28;6.65;;;;;;;21.25;38.80;101066.50;1694444;83;21697;-74
2022/09/25 08:03:20;;;;;;;9.53;6.92;;;;;;;21.25;38.76;101059.59;1703551;83;21076;-74
2022/09/25 08:05:47;;;;;;;7.78;6.97;;;;;;;21.26;38.74;101052.92;1672345;84;21103;-75
2022/09/25 08:08:13;;;;;;;8.50;6.53;;;;;;;21.27;38.74;101054.54;1672557;84;21092;-74
2022/09/25 08:10:39;;;;;;;9.68;6.75;;;;;;;21.27;38.76;101053.98;1703392;83;21070;-74
2022/09/25 08:13:06;;;;;;;7.97;6.35;;;;;;;21.26;38.78;101046.80;1722369;82;21668;-74
2022/09/25 08:15:32;;;;;;;10.50;7.30;;;;;;;21.28;38.75;101052.03;1700043;84;21436;-74
2022/09/25 08:17:59;;;;;;;9.40;7.25;;;;;;;21.29;38.77;101048.14;1671452;84;21083;-74
2022/09/25 08:20:25;;;;;;;9.63;7.10;;;;;;;21.28;38.74;101045.11;1671740;84;21573;-74
2022/09/25 08:22:56;;;;;;;8.53;6.72;;;;;;;21.29;38.75;101044.80;1701833;84;21047;-74
2022/09/25 08:25:22;;;;;;;;;;;;;;;21.30;38.77;101041.47;1704271;84;21230;-74
2022/09/25 08:27:48;;;;;;;9.78;6.47;;;;;;;21.30;38.78;101047.01;1688777;83;20210;-74
2022/09/25 08:30:16;;;;;;;7.70;6.17;;;;;;;21.29;38.77;101038.45;1701527;83;21079;-74
2022/09/25 08:32:42;;;;;;;7.50;6.33;;;;;;;21.29;38.78;101045.37;1701894;84;21063;-74
2022/09/25 08:35:15;;;;;;;8.85;6.50;;;;;;;21.30;38.77;101047.01;1701820;83;21594;-74
2022/09/25 08:37:41;;;;;;;7.28;6.20;;;;;;;21.29;38.78;101048.95;1701949;83;21261;-74
2022/09/25 08:40:13;;;;;;;7.87;6.50;;;;;;;21.30;38.79;101047.80;1702096;83;21553;-74
2022/09/25 08:42:40;;;;;;;10.75;7.20;;;;;;;21.30;38.79;101052.55;1701245;83;21078;-74
2022/09/25 08:50:40;;;;;;;8.58;6.33;;;;;;;21.32;38.78;101045.55;1687154;84;21162;-74
2022/09/25 08:53:11;;;;;;;8.33;6.80;;;;;;;21.32;38.77;101039.19;1671860;84;21065;-75
2022/09/25 08:58:30;;;;;;;8.08;6.05;;;;;;;21.33;38.76;101043.60;1714833;83;21122;-74
2022/09/25 09:01:01;;;;;;;;;;;;;;;21.32;38.76;101035.04;1717621;82;22362;-74
2022/09/25 09:03:29;;;;;;;8.43;6.35;;;;;;;21.31;38.78;101028.69;1694724;83;21282;-74
2022/09/25 09:06:07;;;;;;;7.75;5.58;;;;;;;21.30;38.78;101025.66;1714343;82;22245;-74
2022/09/25 09:08:35;;;;;;;7.87;6.65;;;;;;;21.29;38.79;101024.05;1683057;84;21168;-75
2022/09/25 09:11:22;;;;;;;6.90;5.70;;;;;;;21.31;38.76;101023.16;1699977;83;21489;-74
2022/09/25 09:14:02;;;;;;;7.67;5.60;;;;;;;21.32;38.79;101028.95;1693130;83;21457;-74
2022/09/25 09:16:53;;;;;;;7.35;6.22;;;;;;;21.32;38.78;101026.73;1693157;83;21547;-74
2022/09/25 09:19:19;;;;;;;8.48;6.17;;;;;;;21.32;38.78;101015.11;1683864;83;21046;-75
2022/09/25 09:21:54;;;;;;;7.22;6.12;;;;;;;21.32;38.78;101005.42;1707644;81;21083;-74
2022/09/25 09:24:32;;;;;;;8.48;6.15;;;;;;;21.33;38.79;100996.55;1718135;83;21584;-75
2022/09/25 09:27:26;;;;;;;8.05;5.67;;;;;;;21.32;38.80;100993.53;1709230;82;21079;-75
2022/09/25 09:30:27;;;;;;;7.87;5.97;;;;;;;21.32;38.80;100983.84;1711238;83;21096;-74
2022/09/25 09:33:23;;;;;;;9.03;5.83;;;;;;;21.32;38.56;100985.23;1710896;83;21052;-75
2022/09/25 09:36:11;;;;;;;7.40;6.20;;;;;;;21.32;38.56;100985.23;1693182;83;21492;-75
2022/09/25 09:39:16;;;;;;;8.23;6.17;;;;;;;21.30;38.77;100988.30;1711063;83;21036;-74
2022/09/25 09:42:09;;;;;;;7.75;6.00;;;;;;;21.30;38.79;100984.15;1711423;83;21084;-74
2022/09/25 09:44:57;;;;;;;6.87;6.03;;;;;;;21.29;38.80;100977.01;1711173;83;21543;-74
2022/09/25 09:47:38;;;;;;;7.00;6.30;;;;;;;21.30;38.77;100988.30;1711358;83;21684;-74
2022/09/25 09:50:25;;;;;;;9.70;6.45;;;;;;;21.30;38.79;100981.38;1707523;83;21122;-74
2022/09/25 09:53:12;;;;;;;6.92;6.05;;;;;;;21.29;38.78;100974.23;1700889;84;21107;-75
2022/09/25 09:55:49;;;;;;;6.90;6.12;;;;;;;21.31;38.79;100962.83;1705701;83;21554;-75
2022/09/25 09:58:39;;;;;;;6.90;5.87;;;;;;;21.30;38.75;100966.75;1673894;84;22376;-75
2022/09/25 10:01:05;;;;;;;7.80;5.62;;;;;;;21.31;38.73;100963.65;1651486;85;21103;-74
2022/09/25 10:03:36;;;;;;;7.67;5.97;;;;;;;21.30;38.74;100958.45;1665532;84;21981;-75
2022/09/25 10:06:10;;;;;;;;;;;;;;;21.30;38.72;100950.94;1708264;83;21089;-75
2022/09/25 10:08:37;;;;;;;6.62;5.55;;;;;;;21.29;38.71;100945.75;1706253;83;20349;-75
2022/09/25 10:11:11;;;;;;;6.67;5.45;;;;;;;21.29;38.73;100940.21;1684100;83;21196;-74
2022/09/25 10:13:38;;;;;;;6.62;5.25;;;;;;;21.29;38.72;100942.98;1705881;83;21013;-74
2022/09/25 10:16:19;;;;;;;6.28;5.15;;;;;;;21.30;38.71;100939.88;1664488;84;21116;-74
2022/09/25 10:19:08;;;;;;;6.53;5.20;;;;;;;21.30;38.68;100936.31;1705962;83;21533;-74
2022/09/25 10:21:42;;;;;;;6.33;5.08;;;;;;;21.30;38.69;100927.42;1705716;83;21041;-75
2022/09/25 10:25:00;;;;;;;7.45;5.55;;;;;;;21.30;38.66;100924.65;1705653;83;21165;-75
2022/09/25 10:27:35;;;;;;;6.80;5.40;;;;;;;21.32;38.65;100928.49;1704897;83;21072;-75
2022/09/25 10:30:12;;;;;;;8.08;5.60;;;;;;;21.30;38.64;100929.40;1706025;83;21131;-77
2022/09/25 10:32:58;;;;;;;7.47;5.33;;;;;;;21.32;38.65;100924.34;1705792;83;21111;-75
2022/09/25 10:35:32;;;;;;;7.45;5.55;;;;;;;21.30;38.65;100917.73;1715529;83;21024;-74
2022/09/25 10:38:00;;;;;;;8.38;5.75;;;;;;;21.32;38.65;100918.81;1717686;82;21773;-75
2022/09/25 10:40:34;;;;;;;6.72;5.50;;;;;;;21.32;38.62;100926.55;1684442;83;21029;-74
2022/09/25 10:43:17;;;;;;;6.37;5.15;;;;;;;21.32;38.64;100916.86;1689989;83;21329;-74
2022/09/25 10:45:43;;;;;;;8.35;5.58;;;;;;;21.32;38.62;100919.63;1689408;83;21072;-75
2022/09/25 10:51:10;;;;;;;7.95;5.85;;;;;;;21.32;38.60;100921.02;1646753;83;21963;-74
2022/09/25 10:53:36;;;;;;;5.87;5.17;;;;;;;21.32;38.60;100917.42;1722486;83;21024;-74
2022/09/25 10:56:11;;;;;;;7.03;5.12;;;;;;;21.32;38.59;100916.86;1722370;83;21071;-74
2022/09/25 10:58:53;;;;;;;7.97;5.45;;;;;;;21.33;38.62;100919.06;1722852;82;21024;-75
2022/09/25 11:01:21;;;;;;;7.45;5.40;;;;;;;21.33;38.62;100906.61;1722962;81;21498;-75
2022/09/25 11:03:55;;;;;;;6.75;5.30;;;;;;;21.32;38.60;100907.17;1722216;82;21866;-74
2022/09/25 11:06:28;;;;;;;6.15;5.10;;;;;;;21.33;38.63;100907.99;1678004;84;21059;-74
2022/09/25 11:09:13;;;;;;;8.35;5.95;;;;;;;21.33;38.61;100903.28;1722537;81;21043;-75
2022/09/25 11:11:39;;;;;;;8.30;5.33;;;;;;;21.33;38.62;100899.69;1706533;82;21690;-76
2022/09/25 11:14:31;;;;;;;6.12;5.33;;;;;;;21.33;38.62;100894.16;1685104;83;21349;-75
2022/09/25 11:16:59;;;;;;;8.13;5.53;;;;;;;21.34;38.62;100880.57;1720888;82;21470;-75
2022/09/25 11:19:32;;;;;;;5.40;4.87;;;;;;;21.34;38.61;100876.42;1697117;83;21087;-76
2022/09/25 11:22:25;;;;;;;7.33;5.40;;;;;;;21.34;38.59;100875.03;1697678;83;21122;-75
2022/09/25 11:25:15;;;;;;;6.95;5.08;;;;;;;21.34;38.59;100870.89;1694637;83;21055;-75
2022/09/25 11:27:55;;;;;;;6.67;5.13;;;;;;;21.34;38.61;100868.12;1696694;83;21047;-75
2022/09/25 11:30:22;;;;;;;5.95;5.25;;;;;;;21.33;38.61;100869.25;1697328;83;21651;-75
2022/09/25 11:33:20;;;;;;;7.33;4.97;;;;;;;21.33;38.61;100859.00;1697295;83;21050;-75
2022/09/25 11:36:06;;;;;;;6.00;5.22;;;;;;;21.33;38.59;100867.30;1697750;83;21021;-74
2022/09/25 11:41:48;;;;;;;6.72;5.35;;;;;;;21.33;38.61;100867.86;1707935;83;21017;-75
2022/09/25 11:44:33;;;;;;;5.95;4.95;;;;;;;21.34;38.59;100870.30;1722425;82;21126;-74
2022/09/25 11:47:35;;;;;;;6.25;5.42;;;;;;;21.32;38.62;100860.13;1721637;82;21031;-75
2022/09/25 11:50:02;;;;;;;6.17;5.15;;;;;;;21.32;38.60;100858.74;1694565;81;21103;-75
2022/09/25 11:52:52;;;;;;;5.83;4.72;;;;;;;21.33;38.59;100855.41;1724439;82;21035;-75
2022/09/25 11:55:36;;;;;;;5.20;4.70;;;;;;;21.32;38.60;100850.44;1684674;83;21020;-75
2022/09/25 11:58:38;;;;;;;6.30;4.65;;;;;;;21.32;38.62;100856.54;1671736;85;21201;-74
2022/09/25 12:01:10;;;;;;;5.25;4.58;;;;;;;21.32;38.64;100853.20;1684659;83;21067;-74
2022/09/25 12:04:00;;;;;;;5.53;4.80;;;;;;;21.32;38.64;100844.91;1655823;85;21003;-75
2022/09/25 12:06:47;;;;;;;6.70;4.67;;;;;;;21.32;38.65;100843.52;1685197;84;21115;-74
2022/09/25 12:09:34;;;;;;;5.67;4.37;;;;;;;21.32;38.65;100844.09;1671593;84;21116;-74